createdAt,value
2023-12-26T00:01:47.380Z,78.69
2023-12-26T00:04:52.211Z,78.53
2023-12-26T00:07:40.403Z,78.60
2023-12-26T00:10:47.073Z,79.03
2023-12-26T00:13:13.850Z,79.23
2023-12-26T00:16:27.397Z,78.71
2023-12-26T00:19:39.410Z,77.04
2023-12-26T00:22:07.602Z,76.72
2023-12-26T00:25:14.515Z,75.73
2023-12-26T00:27:41.497Z,77.23
2023-12-26T00:30:12.605Z,77.01
2023-12-26T00:32:39.457Z,76.96
2023-12-26T00:35:08.544Z,76.74
2023-12-26T00:38:07.586Z,74.94
2023-12-26T00:40:34.298Z,76.56
2023-12-26T00:43:01.015Z,75.74
2023-12-26T00:46:18.374Z,75.56
2023-12-26T00:49:27.776Z,75.83
2023-12-26T00:51:55.070Z,76.09
2023-12-26T00:54:21.775Z,75.23
2023-12-26T00:56:49.546Z,75.60
2023-12-26T00:59:16.274Z,74.78
2023-12-26T01:02:23.835Z,75.00
2023-12-26T01:05:35.787Z,74.26
2023-12-26T01:08:02.526Z,74.64
2023-12-26T01:11:14.401Z,74.15
2023-12-26T01:13:41.106Z,74.70
2023-12-26T01:16:40.637Z,73.75
2023-12-26T01:19:50.188Z,73.86
2023-12-26T01:22:17.785Z,74.17
2023-12-26T01:24:44.467Z,74.24
2023-12-26T01:27:52.478Z,73.70
2023-12-26T01:30:20.544Z,73.90
2023-12-26T01:33:33.592Z,73.95
2023-12-26T01:36:00.602Z,74.01
2023-12-26T01:38:27.684Z,74.53
2023-12-26T01:40:54.643Z,74.09
2023-12-26T01:43:21.344Z,74.20
2023-12-26T01:46:29.158Z,73.68
2023-12-26T01:49:25.760Z,72.69
2023-12-26T01:51:54.320Z,73.60
2023-12-26T01:54:23.954Z,73.30
2023-12-26T01:57:33.705Z,71.43
2023-12-26T02:00:02.331Z,72.66
2023-12-26T02:02:40.108Z,72.80
2023-12-26T02:05:17.164Z,72.58
2023-12-26T02:08:17.693Z,71.81
2023-12-26T02:10:46.002Z,72.90
2023-12-26T02:13:31.373Z,72.37
2023-12-26T02:16:19.445Z,72.90
2023-12-26T02:18:59.001Z,72.93
2023-12-26T02:21:25.700Z,73.78
2023-12-26T02:24:38.077Z,73.66
2023-12-26T02:27:05.710Z,73.90
2023-12-26T02:30:01.328Z,73.76
2023-12-26T02:32:28.931Z,74.44
2023-12-26T02:35:35.745Z,74.74
2023-12-26T02:38:03.000Z,74.79
2023-12-26T02:40:29.636Z,75.01
2023-12-26T02:42:56.697Z,75.07
2023-12-26T02:46:04.899Z,75.12
2023-12-26T02:48:31.768Z,75.21
2023-12-26T02:51:40.784Z,75.37
2023-12-26T02:54:28.725Z,75.24
2023-12-26T02:56:55.579Z,75.62
2023-12-26T02:59:22.729Z,75.33
2023-12-26T03:02:01.684Z,75.16
2023-12-26T03:04:28.747Z,75.41
2023-12-26T03:06:55.653Z,75.05
2023-12-26T03:09:23.671Z,75.54
2023-12-26T03:12:30.399Z,74.82
2023-12-26T03:15:18.333Z,74.48
2023-12-26T03:17:45.378Z,75.21
2023-12-26T03:20:59.297Z,74.58
2023-12-26T03:23:26.019Z,75.12
2023-12-26T03:26:36.974Z,74.96
2023-12-26T03:29:03.814Z,74.99
2023-12-26T03:32:22.210Z,74.65
2023-12-26T03:35:31.580Z,74.79
2023-12-26T03:37:58.456Z,74.77
2023-12-26T03:41:14.786Z,74.74
2023-12-26T03:44:27.109Z,74.37
2023-12-26T03:46:53.874Z,74.52
2023-12-26T03:49:36.510Z,75.07
2023-12-26T03:52:39.593Z,74.79
2023-12-26T03:55:49.005Z,74.49
2023-12-26T03:58:58.009Z,74.75
2023-12-26T04:01:24.856Z,75.06
2023-12-26T04:03:52.145Z,75.06
2023-12-26T04:06:47.946Z,74.42
2023-12-26T04:09:56.789Z,74.85
2023-12-26T04:12:24.180Z,75.24
2023-12-26T04:14:51.356Z,74.86
2023-12-26T04:18:00.346Z,74.56
2023-12-26T04:21:13.648Z,74.91
2023-12-26T04:23:40.693Z,75.11
2023-12-26T04:26:07.853Z,74.65
2023-12-26T04:29:19.297Z,74.71
2023-12-26T04:32:29.132Z,74.58
2023-12-26T04:34:56.005Z,75.06
2023-12-26T04:37:27.201Z,75.08
2023-12-26T04:40:41.188Z,75.09
2023-12-26T04:43:09.849Z,74.97
2023-12-26T04:46:24.198Z,75.03
2023-12-26T04:49:33.664Z,75.08
2023-12-26T04:52:00.443Z,75.11
2023-12-26T04:54:27.196Z,75.17
2023-12-26T04:57:05.612Z,75.04
2023-12-26T04:59:32.328Z,75.24
2023-12-26T05:02:39.699Z,74.95
2023-12-26T05:05:48.318Z,75.57
2023-12-26T05:08:15.186Z,75.41
2023-12-26T05:10:41.857Z,75.62
2023-12-26T05:13:09.018Z,75.50
2023-12-26T05:15:36.194Z,75.14
2023-12-26T05:19:03.796Z,75.17
2023-12-26T05:21:30.944Z,75.20
2023-12-26T05:23:57.686Z,75.51
2023-12-26T05:26:24.928Z,75.55
2023-12-26T05:28:51.633Z,75.52
2023-12-26T05:31:22.021Z,75.57
2023-12-26T05:33:53.822Z,75.90
2023-12-26T05:37:05.115Z,75.67
2023-12-26T05:39:32.923Z,75.12
2023-12-26T05:41:59.628Z,75.76
2023-12-26T05:45:09.511Z,75.55
2023-12-26T05:47:36.562Z,75.33
2023-12-26T05:50:44.994Z,75.61
2023-12-26T05:53:51.746Z,75.49
2023-12-26T05:56:19.825Z,75.19
2023-12-26T05:58:46.751Z,75.62
2023-12-26T06:01:59.114Z,75.85
2023-12-26T06:05:01.220Z,75.45
2023-12-26T06:07:27.913Z,75.65
2023-12-26T06:09:54.863Z,75.65
2023-12-26T06:13:13.309Z,75.59
2023-12-26T06:15:40.637Z,75.63
2023-12-26T06:18:27.749Z,75.69
2023-12-26T06:20:54.926Z,75.99
2023-12-26T06:23:21.626Z,75.99
2023-12-26T06:25:48.366Z,76.14
2023-12-26T06:28:15.184Z,75.85
2023-12-26T06:31:27.166Z,76.75
2023-12-26T06:33:54.120Z,76.26
2023-12-26T06:36:22.572Z,76.16
2023-12-26T06:39:33.977Z,76.11
2023-12-26T06:42:01.747Z,76.35
2023-12-26T06:44:28.437Z,76.29
2023-12-26T06:46:55.166Z,75.98
2023-12-26T06:49:37.107Z,76.97
2023-12-26T06:52:45.220Z,76.89
2023-12-26T06:55:12.403Z,77.26
2023-12-26T06:58:19.006Z,77.19
2023-12-26T07:00:46.570Z,76.85
2023-12-26T07:03:52.153Z,77.46
2023-12-26T07:07:00.117Z,76.55
2023-12-26T07:09:26.950Z,76.96
2023-12-26T07:11:53.635Z,76.95
2023-12-26T07:14:44.929Z,77.68
2023-12-26T07:17:11.656Z,76.85
2023-12-26T07:20:24.082Z,77.03
2023-12-26T07:23:34.742Z,76.60
2023-12-26T07:26:01.439Z,77.06
2023-12-26T07:28:28.192Z,77.44
2023-12-26T07:30:54.913Z,77.73
2023-12-26T07:34:10.745Z,77.32
2023-12-26T07:37:20.089Z,78.52
2023-12-26T07:39:47.125Z,78.10
2023-12-26T07:42:13.972Z,77.92
2023-12-26T07:44:41.756Z,78.68
2023-12-26T07:47:08.497Z,78.00
2023-12-26T07:50:15.998Z,78.54
2023-12-26T07:53:22.695Z,78.70
2023-12-26T07:55:49.920Z,79.05
2023-12-26T07:58:16.593Z,78.70
2023-12-26T08:00:44.760Z,78.10
2023-12-26T08:03:16.597Z,77.96
2023-12-26T08:05:44.270Z,78.20
2023-12-26T08:08:12.404Z,78.32
2023-12-26T08:10:39.569Z,77.93
2023-12-26T08:13:51.990Z,78.44
2023-12-26T08:16:18.764Z,78.30
2023-12-26T08:19:11.501Z,78.19
2023-12-26T08:22:18.204Z,78.16
2023-12-26T08:24:45.176Z,77.99
2023-12-26T08:27:23.964Z,77.88
2023-12-26T08:30:40.100Z,78.30
2023-12-26T08:33:07.312Z,78.40
2023-12-26T08:35:35.392Z,78.71
2023-12-26T08:38:02.301Z,78.59
2023-12-26T08:40:28.989Z,78.67
2023-12-26T08:42:56.039Z,78.36
2023-12-26T08:45:22.863Z,79.01
2023-12-26T08:47:51.037Z,78.65
2023-12-26T08:50:46.629Z,78.36
2023-12-26T08:53:58.833Z,79.16
2023-12-26T08:56:25.843Z,78.55
2023-12-26T08:58:52.672Z,78.34
2023-12-26T09:01:19.446Z,78.40
2023-12-26T09:04:37.340Z,78.05
2023-12-26T09:07:44.041Z,78.96
2023-12-26T09:10:11.298Z,78.29
2023-12-26T09:12:59.688Z,78.79
2023-12-26T09:15:26.537Z,78.53
2023-12-26T09:17:53.450Z,78.73
2023-12-26T09:21:00.912Z,78.00
2023-12-26T09:23:49.506Z,78.72
2023-12-26T09:26:22.354Z,78.83
2023-12-26T09:28:49.827Z,79.93
2023-12-26T09:31:57.714Z,81.20
2023-12-26T09:34:24.591Z,81.42
2023-12-26T09:37:36.097Z,78.59
2023-12-26T09:40:26.473Z,80.19
2023-12-26T09:43:01.400Z,79.21
2023-12-26T09:45:28.691Z,78.15
2023-12-26T09:48:38.056Z,73.58
2023-12-26T09:51:40.380Z,71.83
2023-12-26T09:54:55.231Z,70.43
2023-12-26T09:57:22.854Z,72.55
2023-12-26T10:00:47.260Z,69.17
2023-12-26T10:03:58.034Z,68.09
2023-12-26T10:07:06.906Z,69.27
2023-12-26T10:09:33.743Z,68.62
2023-12-26T10:12:42.839Z,66.56
2023-12-26T10:15:56.806Z,64.69
2023-12-26T10:18:26.596Z,64.36
2023-12-26T10:20:55.592Z,63.22
2023-12-26T10:24:02.147Z,59.92
2023-12-26T10:26:29.117Z,61.03
2023-12-26T10:29:41.766Z,59.18
2023-12-26T10:32:08.754Z,60.58
2023-12-26T10:34:35.814Z,59.45
2023-12-26T10:37:03.161Z,58.89
2023-12-26T10:39:29.944Z,58.48
2023-12-26T10:41:58.050Z,57.49
2023-12-26T10:45:06.574Z,54.86
2023-12-26T10:47:34.483Z,56.74
2023-12-26T10:50:04.043Z,56.02
2023-12-26T10:53:10.988Z,54.91
2023-12-26T10:55:39.205Z,55.69
2023-12-26T10:58:33.101Z,54.40
2023-12-26T11:01:00.440Z,55.35
2023-12-26T11:04:23.619Z,54.16
2023-12-26T11:08:05.365Z,53.98
2023-12-26T11:11:47.227Z,55.20
2023-12-26T11:15:29.475Z,55.53
2023-12-26T11:18:52.153Z,54.99
2023-12-26T11:22:33.804Z,56.23
2023-12-26T11:26:15.424Z,57.79
2023-12-26T11:29:57.180Z,57.81
2023-12-26T11:33:38.738Z,58.57
2023-12-26T11:37:20.192Z,58.90
2023-12-26T11:41:01.722Z,58.82
2023-12-26T11:44:43.808Z,59.15
2023-12-26T11:48:25.699Z,60.66
2023-12-26T11:52:07.618Z,60.30
2023-12-26T11:55:49.432Z,60.38
2023-12-26T11:59:31.081Z,60.33
2023-12-26T12:03:12.826Z,60.67
2023-12-26T12:06:54.548Z,61.42
2023-12-26T12:10:36.029Z,61.16
2023-12-26T12:14:17.342Z,60.60
2023-12-26T12:17:58.888Z,61.73
2023-12-26T12:21:40.405Z,61.87
2023-12-26T12:25:21.826Z,61.79
2023-12-26T12:29:03.168Z,61.35
2023-12-26T12:32:44.833Z,61.54
2023-12-26T12:36:26.582Z,62.33
2023-12-26T12:40:08.175Z,62.39
2023-12-26T12:43:49.781Z,62.42
2023-12-26T12:47:31.337Z,63.30
2023-12-26T12:51:13.136Z,62.35
2023-12-26T12:54:54.831Z,62.70
2023-12-26T12:58:36.733Z,62.40
2023-12-26T13:02:18.052Z,62.58
2023-12-26T13:06:00.512Z,62.99
2023-12-26T13:09:42.364Z,62.55
2023-12-26T13:13:24.120Z,62.57
2023-12-26T13:17:05.626Z,62.58
2023-12-26T13:20:47.276Z,62.12
2023-12-26T13:24:32.477Z,62.67
2023-12-26T13:28:13.790Z,62.49
2023-12-26T13:31:57.497Z,63.42
2023-12-26T13:35:41.245Z,63.75
2023-12-26T13:39:23.107Z,63.18
2023-12-26T13:43:04.772Z,63.16
2023-12-26T13:46:46.333Z,63.77
2023-12-26T13:50:35.542Z,64.10
2023-12-26T13:53:58.514Z,63.29
2023-12-26T13:56:25.790Z,63.33
2023-12-26T13:59:29.972Z,63.50
2023-12-26T14:01:56.681Z,63.58
2023-12-26T14:05:01.124Z,62.76
2023-12-26T14:08:06.562Z,64.07
2023-12-26T14:10:33.537Z,63.56
2023-12-26T14:13:00.239Z,63.76
2023-12-26T14:16:05.065Z,64.22
2023-12-26T14:18:31.975Z,64.33
2023-12-26T14:21:36.322Z,63.54
2023-12-26T14:24:40.725Z,62.93
2023-12-26T14:27:44.970Z,62.06
2023-12-26T14:30:11.841Z,62.40
2023-12-26T14:33:20.945Z,63.00
2023-12-26T14:36:25.520Z,62.28
2023-12-26T14:38:52.309Z,62.88
2023-12-26T14:41:18.983Z,63.07
2023-12-26T14:43:46.390Z,63.18
2023-12-26T14:46:50.684Z,62.55
2023-12-26T14:49:54.781Z,63.05
2023-12-26T14:52:21.533Z,63.42
2023-12-26T14:54:48.302Z,63.74
2023-12-26T14:57:34.082Z,63.25
2023-12-26T15:00:00.885Z,64.01
2023-12-26T15:02:35.710Z,63.82
2023-12-26T15:05:44.051Z,63.81
2023-12-26T15:08:10.786Z,63.67
2023-12-26T15:10:37.887Z,64.23
2023-12-26T15:13:04.933Z,64.16
2023-12-26T15:15:39.391Z,64.87
2023-12-26T15:18:07.071Z,64.74
2023-12-26T15:21:16.908Z,64.86
2023-12-26T15:24:31.528Z,65.51
2023-12-26T15:26:58.265Z,65.19
2023-12-26T15:29:25.031Z,65.51
2023-12-26T15:31:52.649Z,66.32
2023-12-26T15:34:51.384Z,66.42
2023-12-26T15:37:18.143Z,66.58
2023-12-26T15:39:44.933Z,66.66
2023-12-26T15:42:11.803Z,67.16
2023-12-26T15:44:39.483Z,67.16
2023-12-26T15:48:04.702Z,67.08
2023-12-26T15:50:32.392Z,67.05
2023-12-26T15:52:59.872Z,67.54
2023-12-26T15:56:19.882Z,68.10
2023-12-26T15:58:46.821Z,68.12
2023-12-26T16:01:53.909Z,68.67
2023-12-26T16:04:22.338Z,68.42
2023-12-26T16:06:50.220Z,68.72
2023-12-26T16:09:56.887Z,69.22
2023-12-26T16:13:08.614Z,69.19
2023-12-26T16:15:35.431Z,69.54
2023-12-26T16:18:02.237Z,69.49
2023-12-26T16:20:35.370Z,69.75
2023-12-26T16:23:43.070Z,70.77
2023-12-26T16:26:10.466Z,70.55
2023-12-26T16:29:19.782Z,71.45
2023-12-26T16:32:26.939Z,71.42
2023-12-26T16:34:53.768Z,70.81
2023-12-26T16:38:00.451Z,72.18
2023-12-26T16:41:15.686Z,72.21
2023-12-26T16:43:42.602Z,72.30
2023-12-26T16:46:10.493Z,72.01
2023-12-26T16:48:40.292Z,72.55
2023-12-26T16:51:09.879Z,72.03
2023-12-26T16:54:27.291Z,73.28
2023-12-26T16:57:39.843Z,73.62
2023-12-26T17:00:07.006Z,72.47
2023-12-26T17:02:34.046Z,72.95
2023-12-26T17:05:01.291Z,73.41
2023-12-26T17:08:07.977Z,74.30
2023-12-26T17:10:34.733Z,74.24
2023-12-26T17:13:01.677Z,73.71
2023-12-26T17:15:28.507Z,74.01
2023-12-26T17:17:55.518Z,74.79
2023-12-26T17:20:48.534Z,74.74
2023-12-26T17:23:59.726Z,74.03
2023-12-26T17:26:26.548Z,74.26
2023-12-26T17:29:42.178Z,74.44
2023-12-26T17:32:08.973Z,74.13
2023-12-26T17:35:21.997Z,74.92
2023-12-26T17:38:28.566Z,75.42
2023-12-26T17:40:55.315Z,75.39
2023-12-26T17:43:22.009Z,74.78
2023-12-26T17:46:31.633Z,76.47
2023-12-26T17:48:58.414Z,75.83
2023-12-26T17:51:25.308Z,75.45
2023-12-26T17:53:52.497Z,75.32
2023-12-26T17:57:00.260Z,76.30
2023-12-26T18:00:15.657Z,76.45
2023-12-26T18:02:42.822Z,76.45
2023-12-26T18:05:55.841Z,75.93
2023-12-26T18:09:05.449Z,76.41
2023-12-26T18:12:21.075Z,76.73
2023-12-26T18:14:47.823Z,76.47
2023-12-26T18:17:40.541Z,77.53
2023-12-26T18:20:07.952Z,77.43
2023-12-26T18:23:15.081Z,78.12
2023-12-26T18:25:41.937Z,76.87
2023-12-26T18:28:08.620Z,77.94
2023-12-26T18:30:36.142Z,77.86
2023-12-26T18:33:04.094Z,77.63
2023-12-26T18:36:10.759Z,77.78
2023-12-26T18:38:38.711Z,78.11
2023-12-26T18:41:05.499Z,77.46
2023-12-26T18:43:32.306Z,77.87
2023-12-26T18:46:02.725Z,78.35
2023-12-26T18:48:29.651Z,77.69
2023-12-26T18:50:57.366Z,78.06
2023-12-26T18:53:24.221Z,77.92
2023-12-26T18:55:51.242Z,77.45
2023-12-26T18:59:03.916Z,77.92
2023-12-26T19:01:30.846Z,77.63
2023-12-26T19:04:41.234Z,79.17
2023-12-26T19:07:51.434Z,79.21
2023-12-26T19:10:31.502Z,78.07
2023-12-26T19:13:19.288Z,78.35
2023-12-26T19:15:46.171Z,78.70
2023-12-26T19:18:13.149Z,77.87
2023-12-26T19:21:29.978Z,79.25
2023-12-26T19:23:56.780Z,77.77
2023-12-26T19:27:08.264Z,78.15
2023-12-26T19:29:35.036Z,79.11
2023-12-26T19:32:01.757Z,79.10
2023-12-26T19:34:28.787Z,79.03
2023-12-26T19:36:55.785Z,78.67
2023-12-26T19:40:02.464Z,79.37
2023-12-26T19:42:29.595Z,79.31
2023-12-26T19:45:16.359Z,79.76
2023-12-26T19:47:43.176Z,79.32
2023-12-26T19:50:49.850Z,79.57
2023-12-26T19:54:03.159Z,80.08
2023-12-26T19:56:29.905Z,79.29
2023-12-26T19:58:56.563Z,79.11
2023-12-26T20:01:23.436Z,80.14
2023-12-26T20:03:51.578Z,80.27
2023-12-26T20:07:01.242Z,79.83
2023-12-26T20:09:28.146Z,80.08
2023-12-26T20:11:59.826Z,80.06
2023-12-26T20:14:26.724Z,80.48
2023-12-26T20:16:53.532Z,80.90
2023-12-26T20:20:01.879Z,80.26
2023-12-26T20:23:11.315Z,81.08
2023-12-26T20:25:38.053Z,80.73
2023-12-26T20:28:08.610Z,80.17
2023-12-26T20:31:21.095Z,80.43
2023-12-26T20:33:49.589Z,80.14
2023-12-26T20:36:16.348Z,81.15
2023-12-26T20:38:43.429Z,80.63
2023-12-26T20:41:10.255Z,80.61
2023-12-26T20:43:36.983Z,80.67
2023-12-26T20:46:05.946Z,80.43
2023-12-26T20:48:52.679Z,80.70
2023-12-26T20:52:08.593Z,80.92
2023-12-26T20:54:36.853Z,81.49
2023-12-26T20:57:44.935Z,80.51
2023-12-26T21:00:53.941Z,80.47
2023-12-26T21:03:20.808Z,81.07
2023-12-26T21:05:47.567Z,81.17
2023-12-26T21:08:55.361Z,80.85
2023-12-26T21:12:08.545Z,80.91
2023-12-26T21:14:51.826Z,81.74
2023-12-26T21:17:32.507Z,80.88
2023-12-26T21:20:41.825Z,81.91
2023-12-26T21:23:08.734Z,81.43
2023-12-26T21:26:17.782Z,80.99
2023-12-26T21:28:45.525Z,81.64
2023-12-26T21:31:12.799Z,80.98
2023-12-26T21:33:41.334Z,81.50
2023-12-26T21:36:09.890Z,81.91
2023-12-26T21:39:20.268Z,82.09
2023-12-26T21:41:47.143Z,81.80
2023-12-26T21:44:32.004Z,81.26
2023-12-26T21:46:58.712Z,81.60
2023-12-26T21:49:25.444Z,82.11
2023-12-26T21:51:52.194Z,81.83
2023-12-26T21:54:22.590Z,82.09
2023-12-26T21:57:29.304Z,82.13
2023-12-26T21:59:56.562Z,82.58
2023-12-26T22:02:23.304Z,82.93
2023-12-26T22:05:29.997Z,82.30
2023-12-26T22:07:56.900Z,82.99
2023-12-26T22:11:05.066Z,82.85
2023-12-26T22:14:13.029Z,82.37
2023-12-26T22:16:39.764Z,82.39
2023-12-26T22:19:06.511Z,82.55
2023-12-26T22:22:15.919Z,82.33
2023-12-26T22:24:42.718Z,83.05
2023-12-26T22:27:52.047Z,82.42
2023-12-26T22:31:12.312Z,82.90
2023-12-26T22:33:39.152Z,83.22
2023-12-26T22:36:10.342Z,82.48
2023-12-26T22:39:23.779Z,83.31
2023-12-26T22:41:50.626Z,83.41
2023-12-26T22:44:57.188Z,82.48
2023-12-26T22:47:23.844Z,82.40
2023-12-26T22:50:34.396Z,83.73
2023-12-26T22:53:43.949Z,82.97
2023-12-26T22:56:30.569Z,83.32
2023-12-26T22:58:57.300Z,82.78
2023-12-26T23:02:03.950Z,83.16
2023-12-26T23:05:11.421Z,83.45
2023-12-26T23:07:38.250Z,82.98
2023-12-26T23:10:05.609Z,83.19
2023-12-26T23:12:32.411Z,83.67
2023-12-26T23:15:29.671Z,83.70
2023-12-26T23:18:39.497Z,84.06
2023-12-26T23:21:06.250Z,83.54
2023-12-26T23:23:32.896Z,83.16
2023-12-26T23:25:59.531Z,83.94
2023-12-26T23:28:26.232Z,82.88
2023-12-26T23:31:33.606Z,83.13
2023-12-26T23:34:47.899Z,82.92
2023-12-26T23:37:17.007Z,83.39
2023-12-26T23:40:24.777Z,82.91
2023-12-26T23:42:51.646Z,83.33
2023-12-26T23:46:00.864Z,82.92
2023-12-26T23:48:27.671Z,82.76
2023-12-26T23:51:15.458Z,83.93
2023-12-26T23:54:22.215Z,83.49
2023-12-26T23:56:48.989Z,83.45
2023-12-26T23:59:15.655Z,83.51
